createdAt,value
2023-05-12T00:01:06.678Z,100302.47
2023-05-12T00:03:34.777Z,100304.38
2023-05-12T00:06:04.420Z,100300.91
2023-05-12T00:08:32.561Z,100294.56
2023-05-12T00:11:00.885Z,100296.13
2023-05-12T00:13:30.477Z,100293.44
2023-05-12T00:15:59.030Z,100297.97
2023-05-12T00:18:28.534Z,100298.25
2023-05-12T00:20:56.983Z,100297.44
2023-05-12T00:23:25.178Z,100296.38
2023-05-12T00:25:53.502Z,100286.53
2023-05-12T00:28:21.577Z,100295.56
2023-05-12T00:30:51.165Z,100292.88
2023-05-12T00:33:19.205Z,100301.94
2023-05-12T00:35:47.706Z,100290.25
2023-05-12T00:38:16.034Z,100286.53
2023-05-12T00:40:44.320Z,100281.75
2023-05-12T00:43:12.564Z,100287.06
2023-05-12T00:45:40.799Z,100281.75
2023-05-12T00:48:10.349Z,100286.53
2023-05-12T00:50:38.700Z,100281.75
2023-05-12T00:53:07.505Z,100278.53
2023-05-12T00:55:36.299Z,100282.03
2023-05-12T00:58:04.523Z,100279.63
2023-05-12T01:00:33.107Z,100281.75
2023-05-12T01:03:01.814Z,100281.25
2023-05-12T01:05:39.197Z,100282.03
2023-05-12T01:08:07.436Z,100268.97
2023-05-12T01:10:36.127Z,100273.78
2023-05-12T01:13:04.320Z,100271.09
2023-05-12T01:15:33.943Z,100266.81
2023-05-12T01:18:03.327Z,100268.41
2023-05-12T01:20:34.410Z,100270.53
2023-05-12T01:23:02.680Z,100265.50
2023-05-12T01:25:33.659Z,100276.97
2023-05-12T01:28:05.326Z,100273.75
2023-05-12T01:30:33.852Z,100268.97
2023-05-12T01:33:02.835Z,100267.94
2023-05-12T01:35:31.239Z,100263.16
2023-05-12T01:38:01.233Z,100270.63
2023-05-12T01:40:37.841Z,100272.19
2023-05-12T01:43:07.206Z,100270.63
2023-05-12T01:45:36.421Z,100267.69
2023-05-12T01:48:04.751Z,100266.00
2023-05-12T01:50:33.117Z,100269.78
2023-05-12T01:53:02.535Z,100267.41
2023-05-12T01:55:32.499Z,100278.59
2023-05-12T01:58:00.519Z,100277.00
2023-05-12T02:00:30.155Z,100275.94
2023-05-12T02:02:59.745Z,100278.06
2023-05-12T02:05:28.047Z,100283.41
2023-05-12T02:07:56.276Z,100280.19
2023-05-12T02:10:24.612Z,100274.09
2023-05-12T02:12:52.747Z,100278.63
2023-05-12T02:15:21.538Z,100275.41
2023-05-12T02:17:54.385Z,100274.31
2023-05-12T02:20:24.069Z,100274.00
2023-05-12T02:22:52.123Z,100273.25
2023-05-12T02:25:21.169Z,100279.09
2023-05-12T02:27:49.725Z,100272.75
2023-05-12T02:30:19.364Z,100276.50
2023-05-12T02:32:47.636Z,100279.16
2023-05-12T02:35:17.567Z,100266.41
2023-05-12T02:37:45.540Z,100272.75
2023-05-12T02:40:14.592Z,100278.63
2023-05-12T02:42:43.557Z,100268.50
2023-05-12T02:45:13.047Z,100268.78
2023-05-12T02:47:41.159Z,100261.84
2023-05-12T02:50:10.410Z,100266.41
2023-05-12T02:52:39.846Z,100262.09
2023-05-12T02:55:08.925Z,100262.09
2023-05-12T02:57:36.973Z,100264.50
2023-05-12T03:00:06.628Z,100265.31
2023-05-12T03:02:39.495Z,100276.75
2023-05-12T03:05:09.559Z,100272.22
2023-05-12T03:07:38.140Z,100269.06
2023-05-12T03:10:09.966Z,100273.03
2023-05-12T03:12:37.944Z,100269.81
2023-05-12T03:15:06.949Z,100265.84
2023-05-12T03:17:35.068Z,100269.06
2023-05-12T03:20:03.795Z,100262.91
2023-05-12T03:22:32.217Z,100267.69
2023-05-12T03:25:00.548Z,100270.91
2023-05-12T03:27:29.975Z,100263.72
2023-05-12T03:30:00.461Z,100268.97
2023-05-12T03:32:29.179Z,100269.75
2023-05-12T03:34:57.466Z,100271.09
2023-05-12T03:37:26.114Z,100273.28
2023-05-12T03:39:56.024Z,100270.63
2023-05-12T03:42:24.379Z,100267.16
2023-05-12T03:44:53.961Z,100269.53
2023-05-12T03:47:23.169Z,100274.09
2023-05-12T03:49:51.732Z,100268.53
2023-05-12T03:52:19.824Z,100271.38
2023-05-12T03:54:48.071Z,100274.88
2023-05-12T03:57:16.088Z,100276.44
2023-05-12T03:59:45.416Z,100279.16
2023-05-12T04:02:15.521Z,100277.03
2023-05-12T04:04:43.800Z,100279.72
2023-05-12T04:07:12.360Z,100275.97
2023-05-12T04:09:40.575Z,100274.94
2023-05-12T04:12:09.113Z,100272.00
2023-05-12T04:14:42.949Z,100270.06
2023-05-12T04:17:11.679Z,100269.31
2023-05-12T04:19:41.205Z,100266.34
2023-05-12T04:22:09.196Z,100274.88
2023-05-12T04:24:38.430Z,100272.75
2023-05-12T04:27:07.183Z,100275.41
2023-05-12T04:29:36.292Z,100280.19
2023-05-12T04:32:04.536Z,100271.94
2023-05-12T04:34:32.844Z,100276.19
2023-05-12T04:37:02.215Z,100280.19
2023-05-12T04:39:31.283Z,100279.66
2023-05-12T04:42:01.972Z,100277.53
2023-05-12T04:44:32.254Z,100276.97
2023-05-12T04:47:01.362Z,100279.66
2023-05-12T04:49:29.713Z,100283.38
2023-05-12T04:51:57.722Z,100282.84
2023-05-12T04:54:27.585Z,100286.00
2023-05-12T04:56:56.310Z,100291.31
2023-05-12T04:59:24.605Z,100294.00
2023-05-12T05:01:54.591Z,100301.47
2023-05-12T05:04:23.040Z,100298.03
2023-05-12T05:06:51.309Z,100296.69
2023-05-12T05:09:19.535Z,100306.81
2023-05-12T05:11:49.025Z,100300.19
2023-05-12T05:14:17.325Z,100304.69
2023-05-12T05:16:45.673Z,100295.13
2023-05-12T05:19:22.379Z,100297.25
2023-05-12T05:21:58.286Z,100302.50
2023-05-12T05:24:27.126Z,100305.72
2023-05-12T05:26:57.059Z,100310.81
2023-05-12T05:29:26.531Z,100308.38
2023-05-12T05:31:54.622Z,100307.81
2023-05-12T05:34:23.226Z,100307.75
2023-05-12T05:36:51.344Z,100307.25
2023-05-12T05:39:19.562Z,100315.72
2023-05-12T05:41:48.250Z,100317.31
2023-05-12T05:44:17.686Z,100316.75
2023-05-12T05:46:46.531Z,100313.50
2023-05-12T05:49:14.583Z,100315.16
2023-05-12T05:51:42.878Z,100310.41
2023-05-12T05:54:12.034Z,100312.25
2023-05-12T05:56:40.558Z,100313.63
2023-05-12T05:59:09.694Z,100327.50
2023-05-12T06:01:39.366Z,100325.13
2023-05-12T06:04:07.626Z,100326.38
2023-05-12T06:06:37.127Z,100326.38
2023-05-12T06:09:05.300Z,100336.69
2023-05-12T06:11:34.587Z,100338.59
2023-05-12T06:14:02.633Z,100335.41
2023-05-12T06:16:31.084Z,100344.88
2023-05-12T06:19:00.549Z,100350.53
2023-05-12T06:21:29.041Z,100348.41
2023-05-12T06:23:57.148Z,100344.03
2023-05-12T06:26:25.496Z,100347.81
2023-05-12T06:28:53.469Z,100347.22
2023-05-12T06:31:21.803Z,100352.34
2023-05-12T06:33:50.700Z,100354.97
2023-05-12T06:36:20.479Z,100346.34
2023-05-12T06:38:48.473Z,100349.47
2023-05-12T06:41:16.731Z,100355.38
2023-05-12T06:43:44.787Z,100353.41
2023-05-12T06:46:15.506Z,100351.31
2023-05-12T06:48:44.163Z,100354.75
2023-05-12T06:51:13.073Z,100357.88
2023-05-12T06:53:42.443Z,100354.19
2023-05-12T06:56:11.502Z,100353.31
2023-05-12T06:58:39.607Z,100361.28
2023-05-12T07:01:08.103Z,100356.19
2023-05-12T07:03:36.429Z,100356.72
2023-05-12T07:06:05.107Z,100350.81
2023-05-12T07:08:33.208Z,100364.75
2023-05-12T07:11:02.882Z,100364.75
2023-05-12T07:13:31.001Z,100365.28
2023-05-12T07:16:00.435Z,100362.13
2023-05-12T07:18:28.558Z,100356.03
2023-05-12T07:20:57.050Z,100361.63
2023-05-12T07:23:25.053Z,100364.31
2023-05-12T07:25:53.617Z,100364.00
2023-05-12T07:28:22.999Z,100370.19
2023-05-12T07:30:51.370Z,100363.38
2023-05-12T07:33:19.374Z,100365.03
2023-05-12T07:35:48.156Z,100365.47
2023-05-12T07:38:16.129Z,100361.28
2023-05-12T07:40:44.630Z,100363.50
2023-05-12T07:43:13.065Z,100361.75
2023-05-12T07:45:42.688Z,100364.03
2023-05-12T07:48:11.297Z,100370.25
2023-05-12T07:50:39.929Z,100370.06
2023-05-12T07:53:07.983Z,100365.50
2023-05-12T07:55:36.771Z,100367.09
2023-05-12T07:58:04.794Z,100365.47
2023-05-12T08:00:33.085Z,100358.78
2023-05-12T08:03:02.577Z,100355.50
2023-05-12T08:05:31.141Z,100360.84
2023-05-12T08:07:59.143Z,100350.56
2023-05-12T08:10:29.778Z,100360.13
2023-05-12T08:12:57.858Z,100356.66
2023-05-12T08:15:26.171Z,100352.63
2023-05-12T08:17:54.790Z,100353.31
2023-05-12T08:20:24.901Z,100356.09
2023-05-12T08:22:52.954Z,100360.16
2023-05-12T08:25:22.004Z,100349.69
2023-05-12T08:27:50.846Z,100354.50
2023-05-12T08:30:19.225Z,100355.59
2023-05-12T08:32:47.285Z,100352.41
2023-05-12T08:35:15.576Z,100344.94
2023-05-12T08:37:44.903Z,100358.81
2023-05-12T08:40:17.578Z,100355.47
2023-05-12T08:42:50.766Z,100355.72
2023-05-12T08:45:19.313Z,100367.63
2023-05-12T08:47:47.557Z,100360.97
2023-05-12T08:50:16.481Z,100357.88
2023-05-12T08:52:45.904Z,100358.69
2023-05-12T08:55:14.557Z,100356.72
2023-05-12T08:57:45.477Z,100358.31
2023-05-12T09:00:14.744Z,100364.28
2023-05-12T09:02:52.821Z,100361.41
2023-05-12T09:05:22.963Z,100359.81
2023-05-12T09:07:55.666Z,100358.31
2023-05-12T09:10:35.199Z,100363.00
2023-05-12T09:13:05.412Z,100367.69
2023-05-12T09:15:37.299Z,100364.03
2023-05-12T09:18:05.641Z,100360.84
2023-05-12T09:20:33.999Z,100366.03
2023-05-12T09:23:14.693Z,100364.69
2023-05-12T09:25:42.995Z,100372.09
2023-05-12T09:28:11.374Z,100377.78
2023-05-12T09:30:42.272Z,100374.69
2023-05-12T09:33:11.802Z,100371.63
2023-05-12T09:35:41.426Z,100362.78
2023-05-12T09:38:10.601Z,100366.00
2023-05-12T09:40:40.574Z,100360.59
2023-05-12T09:43:09.163Z,100364.47
2023-05-12T09:45:38.787Z,100364.69
2023-05-12T09:48:11.833Z,100368.91
2023-05-12T09:50:51.750Z,100374.94
2023-05-12T09:53:22.796Z,100367.19
2023-05-12T09:55:52.550Z,100369.25
2023-05-12T09:58:21.430Z,100367.31
2023-05-12T10:01:17.622Z,100360.56
2023-05-12T10:03:39.482Z,100361.78
2023-05-12T10:06:09.918Z,100366.41
2023-05-12T10:08:39.725Z,100356.19
2023-05-12T10:11:09.631Z,100365.78
2023-05-12T10:13:37.737Z,100361.41
2023-05-12T10:16:06.795Z,100369.94
2023-05-12T10:18:35.910Z,100364.53
2023-05-12T10:21:04.881Z,100363.28
2023-05-12T10:23:33.486Z,100359.03
2023-05-12T10:26:03.351Z,100369.47
2023-05-12T10:28:32.928Z,100363.84
2023-05-12T10:31:01.363Z,100361.72
2023-05-12T10:33:29.466Z,100360.75
2023-05-12T10:35:58.346Z,100362.63
2023-05-12T10:38:26.691Z,100359.47
2023-05-12T10:40:58.070Z,100353.38
2023-05-12T10:43:27.502Z,100352.28
2023-05-12T10:46:10.814Z,100359.19
2023-05-12T10:48:50.927Z,100351.00
2023-05-12T10:51:21.576Z,100340.13
2023-05-12T10:53:54.762Z,100346.47
2023-05-12T10:56:25.366Z,100352.72
2023-05-12T10:59:10.409Z,100351.00
2023-05-12T11:01:41.471Z,100353.72
2023-05-12T11:04:14.462Z,100357.34
2023-05-12T11:06:45.046Z,100359.34
2023-05-12T11:09:13.814Z,100352.84
2023-05-12T11:11:43.490Z,100349.88
2023-05-12T11:14:11.656Z,100347.50
2023-05-12T11:16:44.448Z,100345.75
2023-05-12T11:19:13.231Z,100343.97
2023-05-12T11:21:41.855Z,100341.63
2023-05-12T11:24:13.796Z,100353.03
2023-05-12T11:26:42.195Z,100344.13
2023-05-12T11:29:10.403Z,100355.34
2023-05-12T11:31:39.456Z,100352.09
2023-05-12T11:34:13.129Z,100349.75
2023-05-12T11:36:43.353Z,100347.56
2023-05-12T11:39:15.062Z,100361.72
2023-05-12T11:41:43.379Z,100354.28
2023-05-12T11:44:16.056Z,100353.94
2023-05-12T11:46:55.446Z,100358.69
2023-05-12T11:49:24.891Z,100351.50
2023-05-12T11:51:54.141Z,100358.06
2023-05-12T11:54:22.630Z,100360.06
2023-05-12T11:56:52.097Z,100365.44
2023-05-12T11:59:30.693Z,100354.63
2023-05-12T12:01:59.538Z,100375.66
2023-05-12T12:04:40.378Z,100371.41
2023-05-12T12:07:09.587Z,100372.97
2023-05-12T12:09:40.553Z,100370.88
2023-05-12T12:12:10.155Z,100380.78
2023-05-12T12:14:41.402Z,100377.38
2023-05-12T12:17:09.648Z,100375.00
2023-05-12T12:19:39.144Z,100378.75
2023-05-12T12:22:07.687Z,100376.78
2023-05-12T12:24:35.836Z,100373.97
2023-05-12T12:27:05.366Z,100382.09
2023-05-12T12:29:34.202Z,100379.97
2023-05-12T12:32:02.424Z,100380.25
2023-05-12T12:34:30.376Z,100384.34
2023-05-12T12:37:00.206Z,100384.31
2023-05-12T12:39:28.380Z,100394.25
2023-05-12T12:41:56.948Z,100395.47
2023-05-12T12:44:25.050Z,100387.88
2023-05-12T12:46:53.468Z,100397.66
2023-05-12T12:49:21.951Z,100398.00
2023-05-12T12:51:53.173Z,100401.06
2023-05-12T12:54:22.709Z,100392.50
2023-05-12T12:56:51.636Z,100390.09
2023-05-12T12:59:19.664Z,100385.94
2023-05-12T13:01:48.316Z,100392.28
2023-05-12T13:04:19.592Z,100395.19
2023-05-12T13:06:48.039Z,100392.91
2023-05-12T13:09:19.002Z,100394.50
2023-05-12T13:11:50.160Z,100396.63
2023-05-12T13:14:18.205Z,100390.22
2023-05-12T13:16:46.995Z,100391.88
2023-05-12T13:19:15.447Z,100396.56
2023-05-12T13:21:43.868Z,100392.09
2023-05-12T13:24:11.861Z,100387.03
2023-05-12T13:26:40.125Z,100397.25
2023-05-12T13:29:09.515Z,100400.25
2023-05-12T13:31:38.805Z,100400.44
2023-05-12T13:34:07.045Z,100401.28
2023-05-12T13:36:35.553Z,100401.97
2023-05-12T13:39:03.769Z,100404.53
2023-05-12T13:41:32.102Z,100388.16
2023-05-12T13:44:00.473Z,100402.91
2023-05-12T13:46:30.184Z,100397.84
2023-05-12T13:48:58.435Z,100395.91
2023-05-12T13:51:26.884Z,100408.72
2023-05-12T13:53:55.022Z,100403.25
2023-05-12T13:56:24.180Z,100411.16
2023-05-12T13:58:52.185Z,100410.63
2023-05-12T14:01:20.716Z,100411.72
2023-05-12T14:03:50.149Z,100414.75
2023-05-12T14:06:18.542Z,100412.22
2023-05-12T14:08:46.648Z,100413.03
2023-05-12T14:11:15.227Z,100414.78
2023-05-12T14:13:43.340Z,100413.81
2023-05-12T14:16:13.975Z,100422.06
2023-05-12T14:18:43.687Z,100408.94
2023-05-12T14:21:13.747Z,100416.72
2023-05-12T14:23:41.954Z,100397.13
2023-05-12T14:26:10.217Z,100414.91
2023-05-12T14:28:39.141Z,100412.13
2023-05-12T14:31:07.527Z,100416.72
2023-05-12T14:33:36.046Z,100421.06
2023-05-12T14:36:07.914Z,100416.13
2023-05-12T14:38:38.250Z,100414.13
2023-05-12T14:41:08.360Z,100418.59
2023-05-12T14:43:36.371Z,100408.13
2023-05-12T14:46:06.072Z,100421.25
2023-05-12T14:48:34.041Z,100421.19
2023-05-12T14:51:03.929Z,100419.66
2023-05-12T14:53:32.135Z,100417.53
2023-05-12T14:56:02.014Z,100423.09
2023-05-12T14:58:30.067Z,100417.91
2023-05-12T15:00:59.251Z,100430.19
2023-05-12T15:03:27.664Z,100429.19
2023-05-12T15:06:05.510Z,100427.59
2023-05-12T15:08:34.928Z,100431.25
2023-05-12T15:11:05.551Z,100436.88
2023-05-12T15:13:33.623Z,100433.72
2023-05-12T15:16:02.962Z,100430.34
2023-05-12T15:18:31.194Z,100428.19
2023-05-12T15:20:59.523Z,100431.94
2023-05-12T15:23:27.547Z,100431.34
2023-05-12T15:25:55.866Z,100422.66
2023-05-12T15:28:25.316Z,100430.56
2023-05-12T15:30:57.245Z,100430.56
2023-05-12T15:33:26.084Z,100430.28
2023-05-12T15:35:54.398Z,100424.44
2023-05-12T15:38:22.422Z,100427.22
2023-05-12T15:40:51.765Z,100426.34
2023-05-12T15:43:19.810Z,100430.22
2023-05-12T15:45:49.485Z,100434.41
2023-05-12T15:48:17.599Z,100432.22
2023-05-12T15:50:45.896Z,100436.56
2023-05-12T15:53:13.878Z,100442.31
2023-05-12T15:55:42.137Z,100437.28
2023-05-12T15:58:10.195Z,100437.19
2023-05-12T16:00:38.683Z,100424.25
2023-05-12T16:03:09.056Z,100425.44
2023-05-12T16:05:38.432Z,100431.81
2023-05-12T16:08:06.519Z,100430.41
2023-05-12T16:10:34.876Z,100436.78
2023-05-12T16:13:02.995Z,100438.94
2023-05-12T16:15:31.336Z,100449.25
2023-05-12T16:17:59.696Z,100441.38
2023-05-12T16:20:29.915Z,100443.56
2023-05-12T16:22:58.202Z,100442.94
2023-05-12T16:25:26.702Z,100442.53
2023-05-12T16:27:54.672Z,100445.59
2023-05-12T16:30:22.922Z,100450.25
2023-05-12T16:32:50.943Z,100445.25
2023-05-12T16:35:19.585Z,100448.06
2023-05-12T16:37:49.251Z,100447.88
2023-05-12T16:40:17.634Z,100444.28
2023-05-12T16:42:45.649Z,100444.38
2023-05-12T16:45:13.872Z,100440.91
2023-05-12T16:47:41.836Z,100438.72
2023-05-12T16:50:11.567Z,100445.09
2023-05-12T16:52:39.562Z,100441.50
2023-05-12T16:55:10.241Z,100451.91
2023-05-12T16:57:39.088Z,100453.47
2023-05-12T17:00:10.595Z,100454.28
2023-05-12T17:02:38.965Z,100454.47
2023-05-12T17:05:08.099Z,100447.53
2023-05-12T17:07:36.180Z,100453.75
2023-05-12T17:10:04.669Z,100457.66
2023-05-12T17:12:34.182Z,100451.88
2023-05-12T17:15:07.724Z,100451.41
2023-05-12T17:17:36.694Z,100452.56
2023-05-12T17:20:05.972Z,100456.41
2023-05-12T17:22:37.028Z,100471.31
2023-05-12T17:25:06.197Z,100473.28
2023-05-12T17:27:35.987Z,100473.44
2023-05-12T17:30:04.939Z,100469.66
2023-05-12T17:32:33.274Z,100473.44
2023-05-12T17:35:01.568Z,100466.06
2023-05-12T17:37:30.266Z,100473.81
2023-05-12T17:39:59.404Z,100470.75
2023-05-12T17:42:30.962Z,100473.25
2023-05-12T17:45:00.751Z,100461.81
2023-05-12T17:47:28.925Z,100469.41
2023-05-12T17:49:57.431Z,100471.72
2023-05-12T17:52:25.654Z,100465.78
2023-05-12T17:54:55.568Z,100481.56
2023-05-12T17:57:23.756Z,100481.56
2023-05-12T17:59:52.397Z,100475.19
2023-05-12T18:02:21.834Z,100480.31
2023-05-12T18:04:50.207Z,100486.91
2023-05-12T18:07:18.341Z,100484.75
2023-05-12T18:09:46.584Z,100489.59
2023-05-12T18:12:15.874Z,100494.00
2023-05-12T18:14:44.141Z,100496.09
2023-05-12T18:17:12.247Z,100492.41
2023-05-12T18:19:41.907Z,100494.13
2023-05-12T18:22:10.070Z,100492.19
2023-05-12T18:24:38.321Z,100486.28
2023-05-12T18:27:06.805Z,100497.09
2023-05-12T18:29:35.089Z,100497.53
2023-05-12T18:32:03.126Z,100499.81
2023-05-12T18:34:31.379Z,100504.72
2023-05-12T18:37:00.816Z,100489.41
2023-05-12T18:39:29.200Z,100490.50
2023-05-12T18:41:57.608Z,100487.88
2023-05-12T18:44:25.815Z,100492.44
2023-05-12T18:46:53.946Z,100501.88
2023-05-12T18:49:22.307Z,100504.72
2023-05-12T18:51:50.434Z,100517.19
2023-05-12T18:54:20.135Z,100515.03
2023-05-12T18:56:50.350Z,100522.09
2023-05-12T18:59:18.677Z,100513.38
2023-05-12T19:01:47.156Z,100528.38
2023-05-12T19:04:15.745Z,100521.50
2023-05-12T19:06:43.742Z,100526.81
2023-05-12T19:09:11.997Z,100533.63
2023-05-12T19:11:42.448Z,100537.22
2023-05-12T19:14:11.806Z,100544.34
2023-05-12T19:16:42.183Z,100547.06
2023-05-12T19:19:10.731Z,100552.66
2023-05-12T19:21:38.845Z,100559.91
2023-05-12T19:24:08.396Z,100566.63
2023-05-12T19:26:36.995Z,100570.69
2023-05-12T19:29:07.154Z,100575.56
2023-05-12T19:31:36.044Z,100570.56
2023-05-12T19:34:04.530Z,100572.38
2023-05-12T19:36:32.609Z,100571.44
2023-05-12T19:39:01.109Z,100580.59
2023-05-12T19:41:29.232Z,100570.88
2023-05-12T19:43:57.686Z,100584.88
2023-05-12T19:46:27.144Z,100585.31
2023-05-12T19:48:55.440Z,100585.22
2023-05-12T19:51:23.481Z,100579.81
2023-05-12T19:53:51.752Z,100575.16
2023-05-12T19:56:19.859Z,100591.38
2023-05-12T19:58:48.409Z,100585.53
2023-05-12T20:01:16.399Z,100590.88
2023-05-12T20:03:46.108Z,100594.63
2023-05-12T20:06:14.177Z,100591.00
2023-05-12T20:08:42.477Z,100588.66
2023-05-12T20:11:10.565Z,100597.72
2023-05-12T20:13:38.854Z,100593.50
2023-05-12T20:16:06.915Z,100595.16
2023-05-12T20:18:35.187Z,100604.38
2023-05-12T20:21:04.911Z,100600.38
2023-05-12T20:23:33.136Z,100601.53
2023-05-12T20:26:01.189Z,100610.13
2023-05-12T20:28:29.485Z,100605.00
2023-05-12T20:30:57.675Z,100613.31
2023-05-12T20:33:26.005Z,100606.91
2023-05-12T20:35:54.168Z,100603.72
2023-05-12T20:38:24.196Z,100609.00
2023-05-12T20:40:52.224Z,100610.56
2023-05-12T20:43:20.529Z,100613.84
2023-05-12T20:45:48.622Z,100616.13
2023-05-12T20:48:17.067Z,100610.19
2023-05-12T20:50:45.686Z,100612.88
2023-05-12T20:53:13.901Z,100612.59
2023-05-12T20:55:43.881Z,100610.72
2023-05-12T20:58:12.105Z,100615.50
2023-05-12T21:00:40.064Z,100616.53
2023-05-12T21:03:14.156Z,100618.66
2023-05-12T21:05:47.431Z,100623.03
2023-05-12T21:08:16.185Z,100622.06
2023-05-12T21:10:46.091Z,100629.78
2023-05-12T21:13:14.343Z,100622.09
2023-05-12T21:15:42.616Z,100625.81
2023-05-12T21:18:10.953Z,100624.75
2023-05-12T21:20:38.958Z,100631.97
2023-05-12T21:23:09.254Z,100639.47
2023-05-12T21:25:37.326Z,100632.50
2023-05-12T21:28:07.432Z,100628.78
2023-05-12T21:30:37.054Z,100629.06
2023-05-12T21:33:06.099Z,100635.72
2023-05-12T21:35:34.149Z,100634.91
2023-05-12T21:38:02.490Z,100642.97
2023-05-12T21:40:30.638Z,100641.34
2023-05-12T21:42:58.949Z,100648.81
2023-05-12T21:45:28.522Z,100643.00
2023-05-12T21:47:56.848Z,100648.09
2023-05-12T21:50:24.965Z,100648.91
2023-05-12T21:52:53.250Z,100646.72
2023-05-12T21:55:21.384Z,100644.63
2023-05-12T21:57:49.573Z,100644.63
2023-05-12T22:00:19.985Z,100647.53
2023-05-12T22:02:50.445Z,100639.81
2023-05-12T22:05:18.556Z,100646.22
2023-05-12T22:07:46.736Z,100645.69
2023-05-12T22:10:14.810Z,100641.44
2023-05-12T22:12:43.034Z,100647.84
2023-05-12T22:15:11.823Z,100647.34
2023-05-12T22:17:40.485Z,100650.78
2023-05-12T22:20:11.315Z,100648.91
2023-05-12T22:22:39.545Z,100650.50
2023-05-12T22:25:08.852Z,100652.13
2023-05-12T22:27:37.292Z,100653.72
2023-05-12T22:30:05.982Z,100651.06
2023-05-12T22:32:34.339Z,100655.84
2023-05-12T22:35:02.359Z,100654.25
2023-05-12T22:37:33.339Z,100647.59
2023-05-12T22:40:01.393Z,100651.06
2023-05-12T22:42:29.925Z,100650.53
2023-05-12T22:44:58.283Z,100651.59
2023-05-12T22:47:26.692Z,100644.13
2023-05-12T22:49:54.670Z,100641.41
2023-05-12T22:52:22.851Z,100650.22
2023-05-12T22:54:54.856Z,100647.81
2023-05-12T22:57:23.535Z,100640.38
2023-05-12T22:59:51.733Z,100642.53
2023-05-12T23:02:19.967Z,100637.75
2023-05-12T23:04:47.938Z,100639.06
2023-05-12T23:07:16.401Z,100636.13
2023-05-12T23:09:44.428Z,100636.13
2023-05-12T23:12:13.981Z,100639.59
2023-05-12T23:14:42.029Z,100644.38
2023-05-12T23:17:10.604Z,100637.69
2023-05-12T23:19:39.957Z,100636.63
2023-05-12T23:22:08.137Z,100638.53
2023-05-12T23:24:36.435Z,100630.81
2023-05-12T23:27:05.688Z,100629.19
2023-05-12T23:29:35.442Z,100630.22
2023-05-12T23:32:03.879Z,100624.41
2023-05-12T23:34:31.899Z,100628.13
2023-05-12T23:37:00.136Z,100632.13
2023-05-12T23:39:28.263Z,100628.63
2023-05-12T23:41:56.519Z,100626.47
2023-05-12T23:44:24.581Z,100630.22
2023-05-12T23:46:54.149Z,100617.44
2023-05-12T23:49:22.329Z,100630.22
2023-05-12T23:51:50.580Z,100629.13
2023-05-12T23:54:18.653Z,100622.97
2023-05-12T23:56:46.909Z,100631.75
2023-05-12T23:59:14.869Z,100630.69
